Time;durP1;ratioP1;P1;durP2;ratioP2;P2;SDS_P1;SDS_P2;PMS_P1;PMS_P2;Temp;Humidity;BMP_temperature;BMP_pressure;BME280_temperature;BME280_humidity;BME280_pressure;Samples;Min_cycle;Max_cycle;Signal;HPM_P1;HPM_P2
2022/08/03 00:01:01;;;;;;;;;;;;;;;25.96;36.78;100615.50;5005651;28;2823;-42
2022/08/03 00:03:26;;;;;;;;;;;;;;;26.00;36.47;100614.13;5007234;28;1902;-42
2022/08/03 00:05:51;;;;;;;;;;;;;;;25.97;36.50;100611.78;5008801;28;982;-42
2022/08/03 00:08:17;;;;;;;;;;;;;;;25.97;36.44;100609.09;5000885;28;1153;-41
2022/08/03 00:10:42;;;;;;;;;;;;;;;26.00;36.59;100611.44;4999131;28;1108;-42
2022/08/03 00:13:07;;;;;;;;;;;;;;;26.16;36.64;100610.47;4999924;28;1169;-42
2022/08/03 00:15:32;;;;;;;;;;;;;;;26.34;36.41;100617.44;5016514;28;1082;-42
2022/08/03 00:17:58;;;;;;;;;;;;;;;26.43;36.46;100618.22;5004006;28;1034;-43
2022/08/03 00:20:23;;;;;;;;;;;;;;;26.49;36.18;100606.69;5002165;28;1105;-43
2022/08/03 00:22:48;;;;;;;;;;;;;;;26.31;36.34;100608.88;5004482;28;1906;-43
2022/08/03 00:25:14;;;;;;;;;;;;;;;26.20;36.41;100602.88;5011439;28;998;-42
2022/08/03 00:27:39;;;;;;;;;;;;;;;26.15;36.63;100608.81;5009919;28;1022;-43
2022/08/03 00:30:05;;;;;;;;;;;;;;;26.06;36.85;100604.47;5010616;28;2621;-41
2022/08/03 00:32:30;;;;;;;;;;;;;;;26.06;36.81;100603.66;5001617;28;1002;-41
2022/08/03 00:34:55;;;;;;;;;;;;;;;26.06;36.59;100601.78;5002229;28;1038;-41
2022/08/03 00:37:21;;;;;;;;;;;;;;;26.06;36.51;100606.34;5000908;28;979;-41
2022/08/03 00:39:46;;;;;;;;;;;;;;;26.09;36.38;100611.38;5012711;28;1077;-43
2022/08/03 00:42:12;;;;;;;;;;;;;;;26.05;36.40;100605.50;5009774;28;971;-42
2022/08/03 00:44:43;;;;;;;;;;;;;;;26.08;36.61;100604.28;5005595;28;1910;-42
2022/08/03 00:47:09;;;;;;;;;;;;;;;26.23;36.31;100610.59;5004591;28;943;-43
2022/08/03 00:49:35;;;;;;;;;;;;;;;26.37;36.57;100610.84;5013816;28;1002;-42
2022/08/03 00:52:00;;;;;;;;;;;;;;;26.25;36.29;100605.88;5008917;28;1037;-43
2022/08/03 00:54:25;;;;;;;;;;;;;;;26.15;36.36;100608.81;5016827;28;1136;-42
2022/08/03 00:56:51;;;;;;;;;;;;;;;26.15;36.28;100611.50;4985588;28;890;-40
2022/08/03 00:59:16;;;;;;;;;;;;;;;26.14;36.12;100614.38;5004231;28;2654;-41
2022/08/03 01:01:42;;;;;;;;;;;;;;;26.13;36.50;100612.69;5005893;28;1189;-41
2022/08/03 01:04:07;;;;;;;;;;;;;;;26.08;36.39;100609.69;5007588;28;1907;-40
2022/08/03 01:06:55;;;;;;;;;;;;;;;26.08;36.15;100607.84;4998756;28;1138;-41
2022/08/03 01:09:30;;;;;;;;;;;;;;;26.07;36.75;100610.72;5005051;28;1238;-40
2022/08/03 01:11:58;;;;;;;;;;;;;;;26.43;36.28;100601.19;5008871;28;958;-43
2022/08/03 01:14:24;;;;;;;;;;;;;;;26.67;35.80;100602.84;5010424;28;1038;-42
2022/08/03 01:16:49;;;;;;;;;;;;;;;26.83;35.71;100609.06;5016394;28;1106;-42
2022/08/03 01:19:43;;;;;;;;;;;;;;;26.51;35.98;100609.22;5004246;28;991;-41
2022/08/03 01:22:11;;;;;;;;;;;;;;;26.29;36.03;100604.47;5003965;28;931;-42
2022/08/03 01:24:57;;;;;;;;;;;;;;;26.26;35.72;100607.53;5006183;28;1918;-41
2022/08/03 01:27:28;;;;;;;;;;;;;;;26.17;36.30;100611.31;5012493;28;1219;-40
2022/08/03 01:30:00;;;;;;;;;;;;;;;26.15;35.92;100606.13;4990034;28;2525;-43
2022/08/03 01:32:27;;;;;;;;;;;;;;;26.09;36.25;100608.69;5005444;28;1089;-43
2022/08/03 01:35:01;;;;;;;;;;;;;;;26.07;36.31;100608.03;4981599;28;1141;-43
2022/08/03 01:37:31;;;;;;;;;;;;;;;26.07;36.09;100605.31;4999364;28;1254;-43
2022/08/03 01:39:57;;;;;;;;;;;;;;;26.02;36.51;100603.16;4997619;28;1074;-42
2022/08/03 01:42:22;;;;;;;;;;;;;;;26.06;35.84;100606.34;4996884;28;1146;-41
2022/08/03 01:44:47;;;;;;;;;;;;;;;25.98;36.31;100608.06;5012528;28;1898;-42
2022/08/03 01:47:13;;;;;;;;;;;;;;;26.02;36.29;100613.94;5001263;28;991;-43
2022/08/03 01:49:38;;;;;;;;;;;;;;;26.02;36.20;100609.41;5020569;28;1112;-42
2022/08/03 01:52:03;;;;;;;;;;;;;;;25.98;36.43;100610.78;5009644;28;1038;-40
2022/08/03 01:54:29;;;;;;;;;;;;;;;26.09;36.30;100606.00;5016282;28;1067;-42
2022/08/03 01:56:54;;;;;;;;;;;;;;;26.44;35.69;100608.28;4987658;28;873;-43
2022/08/03 01:59:19;;;;;;;;;;;;;;;26.72;35.45;100608.53;5024195;28;2432;-42
2022/08/03 02:01:45;;;;;;;;;;;;;;;26.81;35.47;100608.44;5024510;28;1121;-42
2022/08/03 02:04:10;;;;;;;;;;;;;;;26.50;36.09;100618.31;4994965;28;1977;-41
2022/08/03 02:06:35;;;;;;;;;;;;;;;26.29;35.75;100614.44;5018349;28;1010;-40
2022/08/03 02:09:01;;;;;;;;;;;;;;;26.21;35.79;100618.00;5007744;28;880;-42
2022/08/03 02:11:26;;;;;;;;;;;;;;;26.15;36.11;100611.50;5019347;28;1077;-41
2022/08/03 02:13:51;;;;;;;;;;;;;;;26.14;35.67;100611.69;5006893;28;991;-42
2022/08/03 02:16:17;;;;;;;;;;;;;;;26.07;36.22;100605.31;5026808;28;1061;-41
2022/08/03 02:18:42;;;;;;;;;;;;;;;26.04;35.96;100611.94;5024819;28;1180;-41
2022/08/03 02:21:09;;;;;;;;;;;;;;;26.06;36.07;100614.44;5010129;28;896;-42
2022/08/03 02:23:34;;;;;;;;;;;;;;;26.01;36.45;100612.25;5011029;28;1977;-43
2022/08/03 02:26:01;;;;;;;;;;;;;;;26.06;35.91;100614.44;5003347;28;1169;-41
2022/08/03 02:28:28;;;;;;;;;;;;;;;26.08;36.38;100615.91;4999402;28;1046;-41
2022/08/03 02:30:54;;;;;;;;;;;;;;;26.11;36.19;100607.47;5015036;28;2660;-40
2022/08/03 02:33:22;;;;;;;;;;;;;;;26.25;36.14;100622.03;5019913;28;911;-41
2022/08/03 02:35:47;;;;;;;;;;;;;;;26.60;35.87;100615.38;5027419;28;1037;-41
2022/08/03 02:38:13;;;;;;;;;;;;;;;26.81;35.80;100619.25;4997109;28;999;-42
2022/08/03 02:40:38;;;;;;;;;;;;;;;26.41;36.05;100620.25;5017443;28;1085;-42
2022/08/03 02:43:04;;;;;;;;;;;;;;;26.18;35.94;100613.00;5006748;28;1987;-42
2022/08/03 02:45:29;;;;;;;;;;;;;;;26.08;35.88;100609.69;5020293;28;876;-42
2022/08/03 02:47:56;;;;;;;;;;;;;;;26.03;36.21;100613.78;5022251;28;1152;-42
2022/08/03 02:50:21;;;;;;;;;;;;;;;26.04;36.13;100615.44;5008158;28;1097;-41
2022/08/03 02:52:47;;;;;;;;;;;;;;;26.03;35.87;100619.16;5022690;28;1037;-43
2022/08/03 02:55:12;;;;;;;;;;;;;;;26.05;36.07;100621.69;4980637;28;872;-42
2022/08/03 02:57:37;;;;;;;;;;;;;;;26.07;35.66;100618.81;4999877;28;868;-42
2022/08/03 03:00:03;;;;;;;;;;;;;;;25.98;36.36;100610.78;5023638;28;1931;-43
2022/08/03 03:02:28;;;;;;;;;;;;;;;26.03;36.29;100611.06;5002680;28;1018;-42
2022/08/03 03:04:54;;;;;;;;;;;;;;;26.23;36.07;100618.69;5018851;28;1906;-41
2022/08/03 03:07:19;;;;;;;;;;;;;;;26.46;36.04;100612.47;5000826;28;1022;-41
2022/08/03 03:09:44;;;;;;;;;;;;;;;26.59;36.01;100619.09;5019915;28;1065;-42
2022/08/03 03:12:10;;;;;;;;;;;;;;;26.64;35.72;100631.00;4986660;28;1129;-43
2022/08/03 03:14:36;;;;;;;;;;;;;;;26.27;35.92;100624.56;5024506;28;1168;-42
2022/08/03 03:17:01;;;;;;;;;;;;;;;26.26;35.93;100628.25;5006834;28;1297;-41
2022/08/03 03:19:26;;;;;;;;;;;;;;;26.20;36.29;100623.59;5019039;28;998;-41
2022/08/03 03:21:52;;;;;;;;;;;;;;;26.06;36.07;100623.34;5006017;28;915;-43
2022/08/03 03:24:17;;;;;;;;;;;;;;;25.96;36.41;100630.84;5015751;28;1975;-41
2022/08/03 03:26:42;;;;;;;;;;;;;;;25.99;36.53;100633.19;5001228;28;999;-43
2022/08/03 03:29:08;;;;;;;;;;;;;;;26.16;36.16;100636.59;5015724;28;2378;-43
2022/08/03 03:31:33;;;;;;;;;;;;;;;26.25;36.36;100640.06;5032968;28;1017;-42
2022/08/03 03:33:58;;;;;;;;;;;;;;;26.19;36.30;100635.41;5016174;28;894;-41
2022/08/03 03:36:24;;;;;;;;;;;;;;;26.13;36.29;100634.25;5009994;28;1054;-41
2022/08/03 03:38:49;;;;;;;;;;;;;;;26.01;38.58;100639.22;5021962;28;1050;-43
2022/08/03 03:41:14;;;;;;;;;;;;;;;26.26;38.35;100639.88;5024290;28;1234;-43
2022/08/03 03:43:40;;;;;;;;;;;;;;;26.10;39.59;100648.09;5012215;28;1898;-43
2022/08/03 03:46:05;;;;;;;;;;;;;;;26.25;40.30;100645.47;5020743;28;920;-43
2022/08/03 03:48:30;;;;;;;;;;;;;;;26.09;40.68;100643.72;5007952;28;1034;-44
2022/08/03 03:50:56;;;;;;;;;;;;;;;25.77;41.50;100644.59;5006564;28;1010;-43
2022/08/03 03:53:22;;;;;;;;;;;;;;;25.09;44.36;100642.25;5006591;28;1196;-43
2022/08/03 03:55:47;;;;;;;;;;;;;;;25.57;43.87;100646.84;5006650;28;1045;-44
2022/08/03 03:58:12;;;;;;;;;;;;;;;25.25;44.29;100654.84;5003308;28;1201;-43
2022/08/03 04:00:38;;;;;;;;;;;;;;;25.45;43.80;100649.06;5008421;28;2705;-43
2022/08/03 04:03:03;;;;;;;;;;;;;;;25.88;42.41;100651.44;5014477;28;1906;-43
2022/08/03 04:11:09;;;;;;;;;;;;;;;26.43;39.17;100660.53;5002096;28;1057;-43
2022/08/03 04:13:44;;;;;;;;;;;;;;;26.28;38.19;100654.03;5016291;28;1177;-43
2022/08/03 04:16:09;;;;;;;;;;;;;;;26.31;38.64;100654.72;5007201;28;915;-43
2022/08/03 04:18:35;;;;;;;;;;;;;;;26.27;38.06;100657.75;5028645;28;1204;-44
2022/08/03 04:21:02;;;;;;;;;;;;;;;26.21;38.34;100658.47;5002926;28;1442;-43
2022/08/03 04:23:27;;;;;;;;;;;;;;;26.24;37.65;100660.78;5010132;28;1894;-43
2022/08/03 04:25:53;;;;;;;;;;;;;;;26.18;37.74;100656.13;5003097;28;1181;-43
2022/08/03 04:28:18;;;;;;;;;;;;;;;26.22;37.57;100660.16;4999347;28;1070;-43
2022/08/03 04:30:46;;;;;;;;;;;;;;;26.23;37.17;100659.13;5000530;28;2742;-45
2022/08/03 04:33:11;;;;;;;;;;;;;;;26.14;37.21;100661.03;4987377;28;983;-45
2022/08/03 04:35:37;;;;;;;;;;;;;;;26.14;37.04;100662.91;5021281;28;1034;-46
2022/08/03 04:38:03;;;;;;;;;;;;;;;26.14;37.10;100665.59;5006948;28;987;-44
2022/08/03 04:40:35;;;;;;;;;;;;;;;26.31;36.73;100654.72;5021069;28;1030;-43
2022/08/03 04:43:00;;;;;;;;;;;;;;;26.35;36.20;100672.22;5005391;28;1951;-44
2022/08/03 04:45:26;;;;;;;;;;;;;;;26.25;36.62;100672.44;5019309;28;1094;-44
2022/08/03 04:47:51;;;;;;;;;;;;;;;26.56;36.56;100662.63;5021416;28;1141;-45
2022/08/03 04:50:17;;;;;;;;;;;;;;;26.67;36.26;100664.91;5019862;28;904;-44
2022/08/03 04:52:42;;;;;;;;;;;;;;;26.85;36.39;100658.31;5003696;28;1173;-44
2022/08/03 04:55:07;;;;;;;;;;;;;;;26.92;36.12;100663.81;5004421;28;1390;-44
2022/08/03 04:57:33;;;;;;;;;;;;;;;26.92;36.29;100661.97;5002651;28;952;-44
2022/08/03 04:59:58;;;;;;;;;;;;;;;26.95;36.40;100668.84;5009246;28;2340;-44
2022/08/03 05:02:23;;;;;;;;;;;;;;;27.00;36.35;100674.53;5017119;28;1025;-44
2022/08/03 05:04:49;;;;;;;;;;;;;;;27.05;36.54;100669.47;5007282;28;1911;-44
2022/08/03 05:07:14;;;;;;;;;;;;;;;27.07;36.53;100669.28;5001612;28;991;-44
2022/08/03 05:09:40;;;;;;;;;;;;;;;27.09;36.37;100668.06;5000287;28;1151;-44
2022/08/03 05:12:05;;;;;;;;;;;;;;;27.12;36.64;100661.47;5000627;28;983;-43
2022/08/03 05:14:31;;;;;;;;;;;;;;;27.13;36.56;100663.97;5009598;28;1015;-44
2022/08/03 05:16:56;;;;;;;;;;;;;;;27.22;36.71;100662.03;5013931;28;1264;-44
2022/08/03 05:19:22;;;;;;;;;;;;;;;27.22;36.78;100670.13;5012943;28;1560;-44
2022/08/03 05:21:47;;;;;;;;;;;;;;;27.32;36.52;100675.25;5007782;28;1035;-43
2022/08/03 05:24:12;;;;;;;;;;;;;;;27.21;36.79;100676.53;5013799;28;1909;-43
2022/08/03 05:26:38;;;;;;;;;;;;;;;27.30;36.37;100680.00;5016160;28;1275;-44
2022/08/03 05:29:03;;;;;;;;;;;;;;;27.33;36.63;100690.41;5014118;28;2409;-44
2022/08/03 05:31:29;;;;;;;;;;;;;;;27.39;36.67;100680.75;5015631;28;1240;-44
2022/08/03 05:33:55;;;;;;;;;;;;;;;27.35;36.57;100688.38;5013229;28;1228;-43
2022/08/03 05:36:21;;;;;;;;;;;;;;;27.37;36.60;100694.44;5012047;28;1233;-43
2022/08/03 05:38:46;;;;;;;;;;;;;;;27.53;36.74;100684.44;5014150;28;1271;-44
2022/08/03 05:41:11;;;;;;;;;;;;;;;27.71;37.02;100694.09;4996552;28;1262;-43
2022/08/03 05:43:37;;;;;;;;;;;;;;;27.47;36.88;100694.16;5008691;28;1902;-44
2022/08/03 05:46:02;;;;;;;;;;;;;;;27.34;37.18;100685.88;5006465;28;799;-43
2022/08/03 05:48:27;;;;;;;;;;;;;;;27.54;36.98;100696.94;5002065;28;1019;-43
2022/08/03 05:50:53;;;;;;;;;;;;;;;27.66;37.17;100694.59;5004129;28;1161;-43
2022/08/03 05:53:18;;;;;;;;;;;;;;;27.45;37.50;100696.19;5000004;28;1018;-43
2022/08/03 05:55:43;;;;;;;;;;;;;;;27.45;37.76;100693.50;5001942;28;1126;-43
2022/08/03 05:58:09;;;;;;;;;;;;;;;27.49;37.70;100705.59;5013131;28;1114;-43
2022/08/03 06:00:34;;;;;;;;;;;;;;;27.55;37.80;100693.22;5014589;28;1904;-44
2022/08/03 06:02:59;;;;;;;;;;;;;;;27.56;37.50;100697.59;5015593;28;1981;-44
2022/08/03 06:05:27;;;;;;;;;;;;;;;27.73;37.61;100705.53;5015634;28;1268;-43
2022/08/03 06:07:52;;;;;;;;;;;;;;;28.13;37.69;100696.22;5014915;28;1066;-43
2022/08/03 06:10:17;;;;;;;;;;;;;;;28.08;37.53;100694.06;5015189;28;1268;-44
2022/08/03 06:12:46;;;;;;;;;;;;;;;28.02;37.31;100690.28;5012854;28;1252;-43
2022/08/03 06:15:11;;;;;;;;;;;;;;;28.05;36.98;100695.31;5014714;28;1054;-42
2022/08/03 06:17:43;;;;;;;;;;;;;;;28.09;37.25;100699.28;5014787;28;1268;-44
2022/08/03 06:20:09;;;;;;;;;;;;;;;28.22;38.00;100697.78;5015520;28;1034;-43
2022/08/03 06:22:34;;;;;;;;;;;;;;;28.46;37.09;100703.88;4997823;28;1125;-43
2022/08/03 06:25:00;;;;;;;;;;;;;;;28.29;37.26;100705.97;5004706;28;1910;-44
2022/08/03 06:27:25;;;;;;;;;;;;;;;28.49;37.03;100700.78;5010788;28;959;-43
2022/08/03 06:29:50;;;;;;;;;;;;;;;28.54;37.55;100694.78;5003088;28;2623;-43
2022/08/03 06:32:16;;;;;;;;;;;;;;;28.32;37.11;100703.72;5000944;28;1256;-44
2022/08/03 06:34:41;;;;;;;;;;;;;;;28.48;37.21;100699.09;4996436;28;1055;-43
2022/08/03 06:37:08;;;;;;;;;;;;;;;28.53;37.24;100704.75;4997552;28;1141;-43
2022/08/03 06:39:33;;;;;;;;;;;;;;;28.58;36.83;100691.47;4996790;28;1034;-43
2022/08/03 06:41:58;;;;;;;;;;;;;;;28.50;37.74;100698.88;4999430;28;944;-43
2022/08/03 06:44:24;;;;;;;;;;;;;;;28.59;37.87;100698.56;5005390;28;1961;-43
2022/08/03 06:46:50;;;;;;;;;;;;;;;28.59;37.05;100690.44;4997349;28;1038;-43
2022/08/03 06:49:15;;;;;;;;;;;;;;;28.54;37.69;100695.63;5006830;28;1232;-42
2022/08/03 06:51:40;;;;;;;;;;;;;;;28.70;37.12;100702.63;5000035;28;1120;-43
2022/08/03 06:54:06;;;;;;;;;;;;;;;28.76;37.61;100694.75;5001608;28;1173;-45
2022/08/03 06:56:32;;;;;;;;;;;;;;;28.94;37.80;100710.53;4997943;28;1050;-43
2022/08/03 06:58:57;;;;;;;;;;;;;;;28.83;37.57;100703.75;5001835;28;2394;-42
2022/08/03 07:01:22;;;;;;;;;;;;;;;28.58;37.73;100709.59;5008795;28;1105;-43
2022/08/03 07:03:48;;;;;;;;;;;;;;;28.60;37.71;100702.13;4995786;28;1899;-43
2022/08/03 07:06:13;;;;;;;;;;;;;;;28.69;38.12;100705.53;5006008;28;1010;-44
2022/08/03 07:08:38;;;;;;;;;;;;;;;28.73;37.91;100698.69;5002210;28;1070;-43
2022/08/03 07:11:03;;;;;;;;;;;;;;;28.72;37.46;100703.28;5010383;28;1121;-43
2022/08/03 07:13:29;;;;;;;;;;;;;;;28.56;37.44;100704.38;5000359;28;1023;-43
2022/08/03 07:15:54;;;;;;;;;;;;;;;28.58;37.93;100704.16;5000653;28;1050;-43
2022/08/03 07:18:19;;;;;;;;;;;;;;;28.64;37.90;100702.56;5000529;28;987;-43
2022/08/03 07:20:45;;;;;;;;;;;;;;;28.66;37.81;100695.91;5012778;28;1125;-43
2022/08/03 07:23:10;;;;;;;;;;;;;;;28.54;37.86;100701.03;5003771;28;1898;-43
2022/08/03 07:25:35;;;;;;;;;;;;;;;28.49;37.86;100706.19;5011131;28;1008;-44
2022/08/03 07:28:01;;;;;;;;;;;;;;;28.49;37.86;100708.91;5014094;28;1260;-42
2022/08/03 07:30:26;;;;;;;;;;;;;;;28.67;38.19;100707.59;5006728;28;2652;-43
2022/08/03 07:32:51;;;;;;;;;;;;;;;28.65;37.67;100721.31;5004602;28;1022;-43
2022/08/03 07:35:17;;;;;;;;;;;;;;;28.81;37.53;100717.50;5004961;28;916;-43
2022/08/03 07:37:42;;;;;;;;;;;;;;;28.72;37.61;100707.84;5008690;28;976;-43
2022/08/03 07:40:07;;;;;;;;;;;;;;;28.85;37.34;100712.53;5004474;28;1057;-43
2022/08/03 07:42:33;;;;;;;;;;;;;;;28.87;37.44;100720.44;4995377;28;1161;-43
2022/08/03 07:44:58;;;;;;;;;;;;;;;28.76;37.28;100724.53;5005346;28;1902;-42
2022/08/03 07:47:27;;;;;;;;;;;;;;;28.74;37.72;100719.31;5012770;28;1268;-43
2022/08/03 07:49:53;;;;;;;;;;;;;;;28.61;37.74;100720.06;5014341;28;1224;-42
2022/08/03 07:55:02;;;;;;;;;;;;;;;28.69;37.48;100709.09;5010560;28;1030;-43
2022/08/03 07:57:27;;;;;;;;;;;;;;;28.72;37.26;100711.41;5011496;28;1412;-43
2022/08/03 07:59:52;;;;;;;;;;;;;;;28.75;37.25;100710.16;5010819;28;2372;-43
2022/08/03 08:02:18;;;;;;;;;;;;;;;28.65;37.49;100715.06;5002493;28;1145;-43
2022/08/03 08:04:43;;;;;;;;;;;;;;;28.72;37.28;100721.38;5000038;28;1902;-43
2022/08/03 08:07:08;;;;;;;;;;;;;;;28.76;37.19;100717.22;5012811;28;1145;-44
2022/08/03 08:09:34;;;;;;;;;;;;;;;28.69;37.40;100719.91;5016916;28;1314;-42
2022/08/03 08:11:59;;;;;;;;;;;;;;;28.74;37.32;100713.91;5016433;28;1303;-43
2022/08/03 08:14:25;;;;;;;;;;;;;;;28.61;37.72;100722.75;5017614;28;1180;-43
2022/08/03 08:16:51;;;;;;;;;;;;;;;28.60;37.38;100713.78;5017284;28;1267;-43
2022/08/03 08:19:16;;;;;;;;;;;;;;;28.80;37.44;100717.69;5017062;28;1058;-43
2022/08/03 08:21:42;;;;;;;;;;;;;;;28.64;37.32;100722.38;5016955;28;1026;-43
2022/08/03 08:24:07;;;;;;;;;;;;;;;28.70;37.19;100718.88;5015979;28;1995;-44
2022/08/03 08:26:33;;;;;;;;;;;;;;;28.71;37.33;100722.41;5017306;28;1110;-43
2022/08/03 08:28:58;;;;;;;;;;;;;;;28.55;37.12;100721.66;5011824;28;2398;-43
2022/08/03 08:31:23;;;;;;;;;;;;;;;28.56;36.36;100726.00;5007990;28;1014;-43
2022/08/03 08:33:49;;;;;;;;;;;;;;;28.57;37.06;100733.13;5003474;28;1007;-43
2022/08/03 08:36:14;;;;;;;;;;;;;;;28.79;37.56;100734.97;5012512;28;920;-43
2022/08/03 08:38:41;;;;;;;;;;;;;;;28.91;36.92;100721.75;5001368;28;1073;-43
2022/08/03 08:41:07;;;;;;;;;;;;;;;28.70;36.47;100713.47;4997396;28;999;-43
2022/08/03 08:43:32;;;;;;;;;;;;;;;28.58;36.57;100723.13;5005323;28;1981;-43
2022/08/03 08:45:58;;;;;;;;;;;;;;;28.36;34.55;100709.59;5006642;28;1043;-43
2022/08/03 08:48:23;;;;;;;;;;;;;;;28.29;36.23;100722.19;5004831;28;1102;-43
2022/08/03 08:50:51;;;;;;;;;;;;;;;28.42;36.69;100719.66;5004647;28;972;-44
2022/08/03 08:53:16;;;;;;;;;;;;;;;28.47;36.58;100721.78;5005742;28;978;-44
2022/08/03 08:55:42;;;;;;;;;;;;;;;28.33;36.48;100723.50;5006513;28;963;-43
2022/08/03 08:58:08;;;;;;;;;;;;;;;28.53;36.41;100712.06;5021157;28;1129;-42
2022/08/03 09:00:34;;;;;;;;;;;;;;;28.39;36.88;100708.38;5009824;28;2358;-43
2022/08/03 09:02:59;;;;;;;;;;;;;;;28.36;37.02;100717.72;5000476;28;1991;-42
2022/08/03 09:05:24;;;;;;;;;;;;;;;28.39;37.14;100725.47;5025354;28;1185;-43
2022/08/03 09:07:49;;;;;;;;;;;;;;;28.33;37.30;100720.78;5030622;28;1085;-43
2022/08/03 09:10:20;;;;;;;;;;;;;;;28.32;36.90;100724.50;5002320;28;1223;-43
2022/08/03 09:12:46;;;;;;;;;;;;;;;28.47;36.69;100719.91;4997589;28;936;-43
2022/08/03 09:15:45;;;;;;;;;;;;;;;28.36;36.70;100707.72;5004781;28;956;-43
2022/08/03 09:18:11;;;;;;;;;;;;;;;28.41;36.83;100700.91;4998501;28;1429;-43
2022/08/03 09:20:36;;;;;;;;;;;;;;;28.50;36.80;100701.59;5016295;28;999;-43
2022/08/03 09:23:03;;;;;;;;;;;;;;;28.62;36.74;100710.88;5012860;28;1918;-43
2022/08/03 09:25:38;;;;;;;;;;;;;;;29.00;36.18;100709.75;5005466;28;1023;-43
2022/08/03 09:28:03;;;;;;;;;;;;;;;29.23;35.76;100705.13;5010159;28;1045;-45
2022/08/03 09:30:29;;;;;;;;;;;;;;;28.70;35.47;100696.38;5002399;28;2512;-45
2022/08/03 09:32:58;;;;;;;;;;;;;;;28.49;36.17;100700.78;5001806;28;1121;-45
2022/08/03 09:35:27;;;;;;;;;;;;;;;28.50;36.08;100698.88;5015951;28;1045;-46
2022/08/03 09:38:28;;;;;;;;;;;;;;;28.42;36.15;100697.16;5014967;28;1027;-44
2022/08/03 09:40:53;;;;;;;;;;;;;;;28.59;36.35;100698.56;4955546;28;1398;-45
2022/08/03 09:43:19;;;;;;;;;;;;;;;28.51;36.15;100698.69;5000928;28;1949;-43
2022/08/03 09:45:44;;;;;;;;;;;;;;;28.39;36.17;100693.00;5015988;28;1236;-44
2022/08/03 09:48:21;;;;;;;;;;;;;;;28.60;36.25;100697.56;5013481;28;1232;-45
2022/08/03 09:50:47;;;;;;;;;;;;;;;28.48;36.56;100693.69;5015933;28;1002;-44
2022/08/03 09:53:12;;;;;;;;;;;;;;;28.40;36.27;100688.41;5013983;28;1232;-45
2022/08/03 09:55:38;;;;;;;;;;;;;;;28.62;36.33;100689.22;5012492;28;1201;-45
2022/08/03 09:58:09;;;;;;;;;;;;;;;28.48;36.44;100690.97;5011288;28;1483;-44
2022/08/03 10:00:47;;;;;;;;;;;;;;;28.45;36.39;100689.50;5013603;28;1902;-43
2022/08/03 10:03:12;;;;;;;;;;;;;;;28.59;36.61;100690.44;5013162;28;1902;-43
2022/08/03 10:05:43;;;;;;;;;;;;;;;28.34;37.02;100690.03;5015295;28;1272;-46
2022/08/03 10:08:13;;;;;;;;;;;;;;;28.28;36.32;100686.19;5015477;28;1038;-47
2022/08/03 10:10:42;;;;;;;;;;;;;;;28.38;36.36;100698.59;5013993;28;963;-47
2022/08/03 10:13:07;;;;;;;;;;;;;;;28.54;35.90;100697.50;5013023;28;1034;-45
2022/08/03 10:15:32;;;;;;;;;;;;;;;28.51;36.05;100685.16;5015890;28;1130;-46
2022/08/03 10:17:58;;;;;;;;;;;;;;;28.72;35.56;100689.75;5003674;28;1257;-45
2022/08/03 10:20:23;;;;;;;;;;;;;;;28.88;34.45;100687.75;5014135;28;1117;-45
2022/08/03 10:22:49;;;;;;;;;;;;;;;28.87;34.64;100683.41;5011973;28;1914;-44
2022/08/03 10:25:14;;;;;;;;;;;;;;;28.58;35.03;100680.66;5013544;28;1216;-43
2022/08/03 10:27:40;;;;;;;;;;;;;;;28.75;34.83;100672.25;5013459;28;1307;-44
2022/08/03 10:30:06;;;;;;;;;;;;;;;28.74;34.92;100670.59;5014451;28;2529;-44
2022/08/03 10:32:47;;;;;;;;;;;;;;;28.56;35.21;100669.19;5014610;28;1272;-45
2022/08/03 10:35:12;;;;;;;;;;;;;;;28.66;34.91;100628.25;5014083;28;993;-43
2022/08/03 10:37:42;;;;;;;;;;;;;;;28.81;35.03;100671.47;5014558;28;1288;-43
2022/08/03 10:40:08;;;;;;;;;;;;;;;28.93;34.70;100665.50;5015291;28;1007;-43
2022/08/03 10:42:33;;;;;;;;;;;;;;;28.95;34.24;100667.00;4982652;28;999;-44
2022/08/03 10:45:05;;;;;;;;;;;;;;;29.03;34.14;100662.50;5015847;28;1898;-44
2022/08/03 10:47:31;;;;;;;;;;;;;;;28.79;34.69;100664.59;5003733;28;1006;-44
2022/08/03 10:49:56;;;;;;;;;;;;;;;28.76;34.97;100665.00;5012240;28;1145;-45
2022/08/03 10:52:22;;;;;;;;;;;;;;;28.87;34.79;100663.59;4998002;28;1037;-44
2022/08/03 10:57:44;;;;;;;;;;;;;;;28.95;35.12;100671.56;5015126;28;959;-44
2022/08/03 11:00:10;;;;;;;;;;;;;;;29.05;35.04;100665.84;4995720;28;2536;-45
2022/08/03 11:02:54;;;;;;;;;;;;;;;29.04;34.46;100658.75;5013377;28;1193;-44
2022/08/03 11:05:27;;;;;;;;;;;;;;;28.96;33.91;100662.44;5005142;28;991;-43
2022/08/03 11:08:12;;;;;;;;;;;;;;;28.92;33.79;100650.31;4997328;28;956;-44
2022/08/03 11:10:37;;;;;;;;;;;;;;;29.04;33.32;100647.91;5013571;28;1780;-44
2022/08/03 11:13:06;;;;;;;;;;;;;;;29.18;33.49;100651.53;5011789;28;1082;-44
2022/08/03 11:15:31;;;;;;;;;;;;;;;28.99;34.03;100650.38;5013829;28;1110;-45
2022/08/03 11:18:11;;;;;;;;;;;;;;;28.98;33.95;100651.44;5013436;28;1058;-44
2022/08/03 11:20:52;;;;;;;;;;;;;;;29.04;34.29;100637.94;5014455;28;1228;-44
2022/08/03 11:23:19;;;;;;;;;;;;;;;29.20;34.12;100644.03;5013630;28;1965;-45
2022/08/03 11:26:03;;;;;;;;;;;;;;;29.11;34.03;100635.28;4999802;28;1221;-44
2022/08/03 11:28:28;;;;;;;;;;;;;;;29.05;33.98;100644.16;4998955;28;1023;-46
2022/08/03 11:30:54;;;;;;;;;;;;;;;29.19;34.10;100645.94;5009664;28;2793;-46
2022/08/03 11:33:28;;;;;;;;;;;;;;;29.23;34.16;100642.81;5016139;28;982;-43
2022/08/03 11:36:00;;;;;;;;;;;;;;;29.09;34.32;100640.03;5006202;28;1184;-47
2022/08/03 11:38:25;;;;;;;;;;;;;;;28.98;34.47;100633.28;5014719;28;1067;-45
2022/08/03 11:40:51;;;;;;;;;;;;;;;29.00;34.63;100635.78;5015372;28;1291;-46
2022/08/03 11:43:16;;;;;;;;;;;;;;;29.01;34.98;100630.19;5017912;28;1894;-43
2022/08/03 11:45:46;;;;;;;;;;;;;;;28.93;34.93;100638.44;5017901;28;1054;-45
2022/08/03 11:48:13;;;;;;;;;;;;;;;28.94;34.99;100640.13;5012197;28;1436;-47
2022/08/03 11:50:39;;;;;;;;;;;;;;;29.11;35.26;100634.41;5018172;28;1216;-46
2022/08/03 11:53:04;;;;;;;;;;;;;;;28.84;35.75;100625.03;5014954;28;1244;-45
2022/08/03 11:55:29;;;;;;;;;;;;;;;28.92;35.23;100620.53;5016416;28;1264;-45
2022/08/03 11:57:57;;;;;;;;;;;;;;;28.89;35.57;100621.78;5016187;28;1256;-43
2022/08/03 12:00:23;;;;;;;;;;;;;;;28.95;35.48;100628.25;5017844;28;1189;-47
2022/08/03 12:02:59;;;;;;;;;;;;;;;28.85;35.40;100625.88;5017045;28;1205;-46
2022/08/03 12:05:39;;;;;;;;;;;;;;;28.92;35.26;100628.66;5017502;28;1222;-47
2022/08/03 12:08:05;;;;;;;;;;;;;;;29.05;35.35;100617.09;5014898;28;1066;-44
2022/08/03 12:10:30;;;;;;;;;;;;;;;28.78;36.13;100606.91;5017206;28;1173;-46
2022/08/03 12:12:56;;;;;;;;;;;;;;;29.20;35.90;100625.94;5014750;28;1209;-44
2022/08/03 12:15:28;;;;;;;;;;;;;;;29.69;35.02;100623.25;5017713;28;1106;-44
2022/08/03 12:17:53;;;;;;;;;;;;;;;29.73;35.50;100634.50;5017073;28;1369;-43
2022/08/03 12:20:24;;;;;;;;;;;;;;;29.92;34.96;100624.78;5016961;28;1014;-43
2022/08/03 12:22:49;;;;;;;;;;;;;;;29.61;35.56;100630.72;5002121;28;972;-44
2022/08/03 12:25:24;;;;;;;;;;;;;;;29.46;36.51;100621.66;5000808;28;1918;-43
2022/08/03 12:27:50;;;;;;;;;;;;;;;30.25;35.45;100617.75;5004614;28;951;-44
2022/08/03 12:30:15;;;;;;;;;;;;;;;30.14;35.44;100627.31;5006402;28;1042;-44
2022/08/03 12:32:41;;;;;;;;;;;;;;;30.31;35.73;100632.38;5008916;28;959;-44
2022/08/03 12:35:07;;;;;;;;;;;;;;;30.44;35.11;100612.53;5012731;28;958;-45
2022/08/03 12:37:32;;;;;;;;;;;;;;;29.80;35.29;100618.25;5012476;28;1047;-46
2022/08/03 12:40:03;;;;;;;;;;;;;;;30.17;35.86;100620.63;5016845;28;1248;-45
2022/08/03 12:42:29;;;;;;;;;;;;;;;30.43;35.50;100610.84;5016944;28;1311;-44
2022/08/03 12:44:54;;;;;;;;;;;;;;;30.39;35.62;100610.44;5015520;28;1906;-45
2022/08/03 12:47:20;;;;;;;;;;;;;;;30.24;35.57;100628.81;5013690;28;1228;-43
2022/08/03 12:49:49;;;;;;;;;;;;;;;30.52;35.69;100630.47;5017070;28;1283;-44
2022/08/03 12:52:15;;;;;;;;;;;;;;;30.55;36.23;100616.47;5016764;28;1122;-45
2022/08/03 12:54:41;;;;;;;;;;;;;;;30.43;36.04;100621.69;5016474;28;1264;-43
2022/08/03 12:57:06;;;;;;;;;;;;;;;30.50;35.59;100611.69;5016013;28;1205;-43